createdAt,value
2018-03-15T00:00:12.301Z,99087.23
2018-03-15T00:02:42.472Z,99090.29
2018-03-15T00:05:11.875Z,99083.91
2018-03-15T00:07:41.411Z,99080.19
2018-03-15T00:10:11.355Z,99082.00
2018-03-15T00:12:40.563Z,99082.33
2018-03-15T00:15:09.886Z,99077.77
2018-03-15T00:17:39.124Z,99078.80
2018-03-15T00:20:09.099Z,99069.42
2018-03-15T00:22:38.314Z,99064.05
2018-03-15T00:25:08.298Z,99060.19
2018-03-15T00:27:37.526Z,99059.70
2018-03-15T00:30:07.500Z,99063.48
2018-03-15T00:32:36.747Z,99056.56
2018-03-15T00:35:06.727Z,99059.86
2018-03-15T00:37:35.926Z,99047.78
2018-03-15T00:40:05.150Z,99049.03
2018-03-15T00:42:34.390Z,99043.45
2018-03-15T00:45:03.584Z,99042.88
2018-03-15T00:47:32.853Z,99045.69
2018-03-15T00:50:02.415Z,99036.12
2018-03-15T00:52:31.631Z,99037.37
2018-03-15T00:55:02.336Z,99034.07
2018-03-15T00:57:31.527Z,99037.76
2018-03-15T01:00:00.736Z,99031.21
2018-03-15T01:02:30.107Z,99026.52
2018-03-15T01:04:59.306Z,99025.59
2018-03-15T01:07:28.524Z,99019.62
2018-03-15T01:09:57.766Z,99012.83
2018-03-15T01:12:27.107Z,99016.70
2018-03-15T01:14:56.359Z,99011.25
2018-03-15T01:17:25.619Z,98994.07
2018-03-15T01:19:54.866Z,98994.11
2018-03-15T01:22:24.871Z,98996.15
2018-03-15T01:24:54.410Z,98995.17
2018-03-15T01:27:23.621Z,98992.73
2018-03-15T01:29:52.826Z,98983.14
2018-03-15T01:32:22.175Z,98979.83
2018-03-15T01:34:51.359Z,98982.27
2018-03-15T01:37:20.604Z,98980.67
2018-03-15T01:39:49.796Z,98979.83
2018-03-15T01:42:19.005Z,98973.86
2018-03-15T01:44:48.196Z,98978.33
2018-03-15T01:47:17.592Z,98970.50
2018-03-15T01:49:46.812Z,98971.17
2018-03-15T01:52:16.126Z,98966.36
2018-03-15T01:54:45.327Z,98962.19
2018-03-15T01:57:14.543Z,98961.85
2018-03-15T01:59:45.249Z,98957.66
2018-03-15T02:02:14.591Z,98958.99
2018-03-15T02:04:44.582Z,98956.40
2018-03-15T02:07:13.766Z,98948.61
2018-03-15T02:09:42.975Z,98950.19
2018-03-15T02:12:12.492Z,98938.92
2018-03-15T02:14:41.772Z,98939.88
2018-03-15T02:17:10.983Z,98934.97
2018-03-15T02:19:40.312Z,98932.88
2018-03-15T02:22:09.491Z,98935.37
2018-03-15T02:24:38.695Z,98928.27
2018-03-15T02:27:08.710Z,98922.61
2018-03-15T02:29:38.817Z,98927.52
2018-03-15T02:32:08.044Z,98926.63
2018-03-15T02:34:37.265Z,98923.55
2018-03-15T02:37:06.599Z,98925.50
2018-03-15T02:39:36.052Z,98930.89
2018-03-15T02:42:05.268Z,98926.47
2018-03-15T02:44:34.451Z,98912.04
2018-03-15T02:47:03.631Z,98907.29
2018-03-15T02:49:32.888Z,98911.73
2018-03-15T02:52:02.086Z,98897.61
2018-03-15T02:54:31.294Z,98893.69
2018-03-15T02:57:02.020Z,98890.92
2018-03-15T02:59:31.502Z,98891.80
2018-03-15T03:02:00.851Z,98887.23
2018-03-15T03:04:30.949Z,98887.63
2018-03-15T03:07:01.034Z,98876.77
2018-03-15T03:09:30.364Z,98874.76
2018-03-15T03:11:59.594Z,98881.15
2018-03-15T03:14:29.568Z,98874.24
2018-03-15T03:16:58.900Z,98884.38
2018-03-15T03:19:28.539Z,98878.63
2018-03-15T03:21:57.851Z,98882.89
2018-03-15T03:24:27.028Z,98874.85
2018-03-15T03:26:57.019Z,98878.66
2018-03-15T03:29:26.219Z,98874.24
2018-03-15T03:31:55.496Z,98878.17
2018-03-15T03:34:24.692Z,98874.59
2018-03-15T03:36:53.913Z,98861.45
2018-03-15T03:39:23.122Z,98862.33
2018-03-15T03:41:52.349Z,98863.19
2018-03-15T03:44:22.423Z,98858.91
2018-03-15T03:46:51.641Z,98859.03
2018-03-15T03:49:20.854Z,98849.27
2018-03-15T03:51:50.065Z,98850.17
2018-03-15T03:54:19.296Z,98841.02
2018-03-15T03:56:48.507Z,98849.26
2018-03-15T03:59:17.825Z,98850.37
2018-03-15T04:01:47.030Z,98835.22
2018-03-15T04:04:16.664Z,98832.55
2018-03-15T04:06:45.839Z,98834.29
2018-03-15T04:09:15.032Z,98836.33
2018-03-15T04:11:45.002Z,98845.25
2018-03-15T04:14:14.196Z,98839.73
2018-03-15T04:16:43.416Z,98842.08
2018-03-15T04:19:12.637Z,98834.72
2018-03-15T04:21:42.742Z,98839.01
2018-03-15T04:24:12.107Z,98833.68
2018-03-15T04:26:41.297Z,98823.89
2018-03-15T04:29:10.519Z,98825.89
2018-03-15T04:31:39.714Z,98817.31
2018-03-15T04:34:08.899Z,98816.73
2018-03-15T04:36:38.134Z,98810.83
2018-03-15T04:39:08.111Z,98809.42
2018-03-15T04:41:37.319Z,98801.99
2018-03-15T04:44:06.575Z,98801.89
2018-03-15T04:46:36.775Z,98797.60
2018-03-15T04:49:06.079Z,98800.88
2018-03-15T04:51:35.314Z,98800.95
2018-03-15T04:54:04.506Z,98797.70
2018-03-15T04:56:33.731Z,98798.34
2018-03-15T04:59:02.922Z,98797.59
2018-03-15T05:01:32.240Z,98791.19
2018-03-15T05:04:01.459Z,98797.81
2018-03-15T05:06:31.432Z,98789.37
2018-03-15T05:09:00.769Z,98781.82
2018-03-15T05:11:30.006Z,98781.82
2018-03-15T05:13:59.194Z,98775.03
2018-03-15T05:16:28.467Z,98772.46
2018-03-15T05:18:58.612Z,98767.64
2018-03-15T05:21:27.866Z,98758.61
2018-03-15T05:23:57.051Z,98754.19
2018-03-15T05:26:26.404Z,98753.31
2018-03-15T05:28:55.609Z,98736.49
2018-03-15T05:31:24.823Z,98737.90
2018-03-15T05:33:54.130Z,98726.00
2018-03-15T05:36:23.318Z,98726.04
2018-03-15T05:38:54.367Z,98719.61
2018-03-15T05:41:23.589Z,98727.19
2018-03-15T05:43:52.796Z,98720.57
2018-03-15T05:46:22.081Z,98709.61
2018-03-15T05:48:51.310Z,98708.20
2018-03-15T05:51:20.598Z,98701.73
2018-03-15T05:53:50.306Z,98691.33
2018-03-15T05:56:19.470Z,98695.43
2018-03-15T05:58:48.904Z,98695.43
2018-03-15T06:01:18.883Z,98690.93
2018-03-15T06:03:48.107Z,98697.13
2018-03-15T06:06:17.310Z,98690.18
2018-03-15T06:08:46.794Z,98696.33
2018-03-15T06:11:16.170Z,98696.08
2018-03-15T06:13:45.415Z,98693.09
2018-03-15T06:16:15.374Z,98696.35
2018-03-15T06:18:44.632Z,98693.44
2018-03-15T06:21:14.799Z,98689.02
2018-03-15T06:23:44.032Z,98687.13
2018-03-15T06:26:13.362Z,98682.87
2018-03-15T06:28:43.346Z,98686.42
2018-03-15T06:31:12.657Z,98677.41
2018-03-15T06:33:41.787Z,98672.38
2018-03-15T06:36:11.039Z,98669.45
2018-03-15T06:38:40.258Z,98663.75
2018-03-15T06:41:09.459Z,98665.30
2018-03-15T06:43:39.436Z,98667.30
2018-03-15T06:46:09.119Z,98662.20
2018-03-15T06:48:38.530Z,98657.42
2018-03-15T06:51:07.756Z,98670.55
2018-03-15T06:53:36.918Z,98666.61
2018-03-15T06:56:06.109Z,98661.59
2018-03-15T06:58:36.031Z,98653.35
2018-03-15T07:01:05.258Z,98656.54
2018-03-15T07:03:34.460Z,98651.67
2018-03-15T07:06:03.714Z,98647.28
2018-03-15T07:08:32.930Z,98649.44
2018-03-15T07:11:02.217Z,98646.47
2018-03-15T07:13:31.411Z,98654.14
2018-03-15T07:16:00.811Z,98646.74
2018-03-15T07:18:30.009Z,98654.97
2018-03-15T07:20:59.221Z,98651.59
2018-03-15T07:23:28.566Z,98652.63
2018-03-15T07:25:57.774Z,98653.36
2018-03-15T07:28:27.777Z,98654.63
2018-03-15T07:30:56.963Z,98654.86
2018-03-15T07:33:26.282Z,98664.36
2018-03-15T07:35:55.482Z,98671.77
2018-03-15T07:38:24.686Z,98679.47
2018-03-15T07:40:53.886Z,98682.23
2018-03-15T07:43:23.855Z,98684.52
2018-03-15T07:45:53.065Z,98694.80
2018-03-15T07:48:22.285Z,98680.95
2018-03-15T07:50:51.535Z,98688.80
2018-03-15T07:53:21.574Z,98675.27
2018-03-15T07:55:51.023Z,98674.86
2018-03-15T07:58:20.457Z,98676.61
2018-03-15T08:00:49.681Z,98682.77
2018-03-15T08:03:18.860Z,98689.56
2018-03-15T08:05:48.087Z,98693.02
2018-03-15T08:08:17.275Z,98688.34
2018-03-15T08:10:46.481Z,98684.45
2018-03-15T08:13:15.699Z,98678.25
2018-03-15T08:15:44.894Z,98667.55
2018-03-15T08:18:14.915Z,98657.60
2018-03-15T08:20:44.153Z,98649.41
2018-03-15T08:23:13.345Z,98650.31
2018-03-15T08:25:42.566Z,98643.47
2018-03-15T08:28:11.757Z,98641.41
2018-03-15T08:30:40.987Z,98646.51
2018-03-15T08:33:10.870Z,98642.00
2018-03-15T08:35:40.092Z,98644.95
2018-03-15T08:38:09.510Z,98641.23
2018-03-15T08:40:39.502Z,98642.66
2018-03-15T08:43:08.830Z,98644.80
2018-03-15T08:45:38.157Z,98651.03
2018-03-15T08:48:07.376Z,98634.22
2018-03-15T08:50:36.708Z,98632.95
2018-03-15T08:53:05.913Z,98635.48
2018-03-15T08:55:35.150Z,98634.20
2018-03-15T08:58:04.346Z,98623.64
2018-03-15T09:00:33.601Z,98628.84
2018-03-15T09:03:02.822Z,98628.80
2018-03-15T09:05:32.803Z,98617.73
2018-03-15T09:08:01.997Z,98611.40
2018-03-15T09:10:31.321Z,98606.20
2018-03-15T09:13:01.296Z,98604.00
2018-03-15T09:15:30.612Z,98602.16
2018-03-15T09:17:59.824Z,98596.09
2018-03-15T09:20:29.243Z,98592.84
2018-03-15T09:22:58.431Z,98586.69
2018-03-15T09:25:27.783Z,98579.50
2018-03-15T09:27:57.009Z,98580.70
2018-03-15T09:30:26.198Z,98576.20
2018-03-15T09:32:55.411Z,98573.42
2018-03-15T09:35:24.598Z,98570.38
2018-03-15T09:37:53.858Z,98570.44
2018-03-15T09:40:23.077Z,98565.11
2018-03-15T09:42:52.280Z,98561.27
2018-03-15T09:45:21.535Z,98550.35
2018-03-15T09:47:50.728Z,98544.10
2018-03-15T09:50:19.954Z,98550.59
2018-03-15T09:52:49.351Z,98550.71
2018-03-15T09:55:18.568Z,98539.45
2018-03-15T09:57:47.773Z,98536.02
2018-03-15T10:00:16.963Z,98535.59
2018-03-15T10:02:46.184Z,98534.52
2018-03-15T10:05:15.438Z,98530.83
2018-03-15T10:07:44.755Z,98527.78
2018-03-15T10:10:14.020Z,98525.30
2018-03-15T10:12:43.228Z,98524.73
2018-03-15T10:15:17.312Z,98514.48
2018-03-15T10:17:47.299Z,98505.55
2018-03-15T10:20:17.410Z,98508.44
2018-03-15T10:22:46.689Z,98503.80
2018-03-15T10:25:26.395Z,98508.81
2018-03-15T10:27:45.124Z,98501.95
2018-03-15T10:30:15.237Z,98491.64
2018-03-15T10:32:45.216Z,98499.34
2018-03-15T10:35:19.860Z,98493.29
2018-03-15T10:37:49.059Z,98484.23
2018-03-15T10:40:19.772Z,98479.28
2018-03-15T10:42:49.059Z,98480.95
2018-03-15T10:45:18.358Z,98477.71
2018-03-15T10:47:48.303Z,98475.48
2018-03-15T10:50:17.633Z,98467.70
2018-03-15T10:52:46.915Z,98470.91
2018-03-15T10:55:16.146Z,98467.52
2018-03-15T10:57:46.211Z,98471.91
2018-03-15T11:00:15.550Z,98469.50
2018-03-15T11:02:47.445Z,98464.36
2018-03-15T11:05:22.055Z,98460.75
2018-03-15T11:07:56.651Z,98464.28
2018-03-15T11:10:25.858Z,98469.78
2018-03-15T11:12:55.826Z,98461.87
2018-03-15T11:15:25.915Z,98455.35
2018-03-15T11:17:55.120Z,98452.92
2018-03-15T11:20:24.342Z,98458.80
2018-03-15T11:22:53.603Z,98460.63
2018-03-15T11:25:23.499Z,98451.48
2018-03-15T11:27:53.200Z,98454.08
2018-03-15T11:30:22.403Z,98449.80
2018-03-15T11:32:51.616Z,98441.07
2018-03-15T11:35:21.558Z,98427.95
2018-03-15T11:37:50.792Z,98429.73
2018-03-15T11:40:19.997Z,98422.11
2018-03-15T11:42:49.219Z,98423.05
2018-03-15T11:45:18.405Z,98406.69
2018-03-15T11:47:48.408Z,98406.69
2018-03-15T11:50:17.860Z,98411.23
2018-03-15T11:52:47.057Z,98410.30
2018-03-15T11:55:16.274Z,98408.79
2018-03-15T11:57:45.492Z,98416.00
2018-03-15T12:00:14.686Z,98406.25
2018-03-15T12:02:43.915Z,98414.48
2018-03-15T12:05:13.178Z,98408.05
2018-03-15T12:07:42.374Z,98410.81
2018-03-15T12:10:11.547Z,98408.66
2018-03-15T12:12:40.770Z,98409.08
2018-03-15T12:15:10.022Z,98406.94
2018-03-15T12:17:39.240Z,98405.98
2018-03-15T12:20:08.453Z,98401.90
2018-03-15T12:22:37.682Z,98399.94
2018-03-15T12:25:06.903Z,98398.78
2018-03-15T12:27:36.871Z,98396.03
2018-03-15T12:30:07.002Z,98390.55
2018-03-15T12:32:36.147Z,98384.49
2018-03-15T12:35:05.407Z,98380.77
2018-03-15T12:37:34.634Z,98372.57
2018-03-15T12:40:03.899Z,98379.58
2018-03-15T12:42:33.196Z,98372.41
2018-03-15T12:45:02.413Z,98364.03
2018-03-15T12:47:31.604Z,98362.48
2018-03-15T12:50:00.862Z,98373.80
2018-03-15T12:52:30.262Z,98367.77
2018-03-15T12:54:59.502Z,98366.02
2018-03-15T12:57:29.507Z,98358.58
2018-03-15T12:59:58.727Z,98361.89
2018-03-15T13:02:27.910Z,98359.55
2018-03-15T13:04:57.948Z,98362.27
2018-03-15T13:07:27.912Z,98349.96
2018-03-15T13:09:57.891Z,98351.55
2018-03-15T13:12:27.878Z,98346.09
2018-03-15T13:14:57.083Z,98341.63
2018-03-15T13:17:26.279Z,98343.60
2018-03-15T13:19:56.273Z,98347.69
2018-03-15T13:22:25.511Z,98345.36
2018-03-15T13:24:54.742Z,98343.62
2018-03-15T13:27:23.934Z,98341.47
2018-03-15T13:29:53.207Z,98331.31
2018-03-15T13:32:22.432Z,98332.69
2018-03-15T13:34:51.659Z,98329.98
2018-03-15T13:37:20.873Z,98326.64
2018-03-15T13:39:50.099Z,98328.22
2018-03-15T13:42:19.371Z,98330.36
2018-03-15T13:47:24.777Z,98312.18
2018-03-15T13:49:54.003Z,98312.42
2018-03-15T13:52:23.232Z,98311.63
2018-03-15T13:54:52.448Z,98316.30
2018-03-15T13:57:22.423Z,98310.44
2018-03-15T13:59:51.619Z,98313.20
2018-03-15T14:02:20.853Z,98312.20
2018-03-15T14:04:50.039Z,98306.92
2018-03-15T14:07:20.175Z,98311.41
2018-03-15T14:09:49.422Z,98307.52
2018-03-15T14:12:18.623Z,98296.81
2018-03-15T14:14:48.050Z,98305.79
2018-03-15T14:17:18.034Z,98304.59
2018-03-15T14:19:47.278Z,98309.30
2018-03-15T14:22:16.499Z,98310.64
2018-03-15T14:24:45.755Z,98316.87
2018-03-15T14:27:14.966Z,98311.44
2018-03-15T14:29:44.926Z,98308.11
2018-03-15T14:32:14.273Z,98309.30
2018-03-15T14:34:43.604Z,98302.64
2018-03-15T14:37:12.956Z,98296.22
2018-03-15T14:39:42.210Z,98300.70
2018-03-15T14:42:12.147Z,98292.13
2018-03-15T14:44:41.446Z,98304.22
2018-03-15T14:47:10.654Z,98297.38
2018-03-15T14:49:39.931Z,98304.20
2018-03-15T14:52:09.307Z,98302.27
2018-03-15T14:54:38.572Z,98298.36
2018-03-15T14:57:07.787Z,98295.23
2018-03-15T14:59:37.849Z,98291.11
2018-03-15T15:02:07.033Z,98293.08
2018-03-15T15:04:36.261Z,98301.43
2018-03-15T15:07:05.472Z,98293.03
2018-03-15T15:09:34.810Z,98297.30
2018-03-15T15:12:04.070Z,98299.25
2018-03-15T15:14:33.305Z,98300.39
2018-03-15T15:17:03.275Z,98304.28
2018-03-15T15:19:32.582Z,98305.23
2018-03-15T15:22:01.752Z,98301.92
2018-03-15T15:24:30.969Z,98308.93
2018-03-15T15:27:00.169Z,98301.37
2018-03-15T15:29:29.529Z,98302.12
2018-03-15T15:31:58.881Z,98302.13
2018-03-15T15:34:28.090Z,98294.86
2018-03-15T15:36:57.295Z,98300.67
2018-03-15T15:39:27.319Z,98310.34
2018-03-15T15:41:57.300Z,98294.16
2018-03-15T15:44:26.519Z,98295.49
2018-03-15T15:46:56.503Z,98308.33
2018-03-15T15:49:25.882Z,98303.05
2018-03-15T15:51:55.273Z,98300.52
2018-03-15T15:54:24.537Z,98307.52
2018-03-15T15:56:54.850Z,98300.48
2018-03-15T15:59:24.915Z,98307.48
2018-03-15T16:01:54.135Z,98298.88
2018-03-15T16:04:23.410Z,98302.69
2018-03-15T16:06:53.529Z,98305.41
2018-03-15T16:09:22.746Z,98307.70
2018-03-15T16:11:52.091Z,98301.03
2018-03-15T16:14:22.085Z,98307.05
2018-03-15T16:16:51.431Z,98302.50
2018-03-15T16:19:20.771Z,98301.91
2018-03-15T16:21:50.018Z,98304.23
2018-03-15T16:24:19.978Z,98298.59
2018-03-15T16:26:49.203Z,98299.72
2018-03-15T16:29:18.560Z,98295.78
2018-03-15T16:31:47.761Z,98294.94
2018-03-15T16:34:16.985Z,98303.38
2018-03-15T16:36:46.265Z,98299.97
2018-03-15T16:39:15.478Z,98303.79
2018-03-15T16:41:44.702Z,98308.20
2018-03-15T16:44:13.930Z,98308.59
2018-03-15T16:46:43.879Z,98321.23
2018-03-15T16:49:13.128Z,98319.06
2018-03-15T16:51:43.110Z,98322.77
2018-03-15T16:54:12.360Z,98332.28
2018-03-15T16:56:41.747Z,98338.23
2018-03-15T16:59:11.890Z,98336.39
2018-03-15T17:01:41.138Z,98331.66
2018-03-15T17:04:11.858Z,98333.78
2018-03-15T17:06:44.329Z,98342.25
2018-03-15T17:09:15.642Z,98344.81
2018-03-15T17:11:46.454Z,98347.86
2018-03-15T17:14:16.445Z,98351.55
2018-03-15T17:16:49.418Z,98353.20
2018-03-15T17:19:21.076Z,98355.63
2018-03-15T17:21:51.623Z,98362.01
2018-03-15T17:24:21.648Z,98358.05
2018-03-15T17:26:51.865Z,98369.08
2018-03-15T17:29:21.166Z,98366.00
2018-03-15T17:31:51.173Z,98371.66
2018-03-15T17:34:20.377Z,98379.86
2018-03-15T17:36:51.384Z,98376.27
2018-03-15T17:39:21.106Z,98379.62
2018-03-15T17:41:51.712Z,98385.84
2018-03-15T17:44:22.379Z,98387.00
2018-03-15T17:46:52.813Z,98384.63
2018-03-15T17:49:23.239Z,98394.80
2018-03-15T17:51:54.419Z,98395.24
2018-03-15T17:54:24.100Z,98399.63
2018-03-15T17:56:53.642Z,98395.67
2018-03-15T17:59:23.188Z,98398.81
2018-03-15T18:01:52.530Z,98398.13
2018-03-15T18:04:21.987Z,98403.52
2018-03-15T18:06:51.163Z,98402.22
2018-03-15T18:09:20.403Z,98398.65
2018-03-15T18:11:50.478Z,98398.91
2018-03-15T18:14:19.726Z,98401.08
2018-03-15T18:16:49.882Z,98407.77
2018-03-15T18:19:19.115Z,98407.03
2018-03-15T18:21:48.347Z,98397.50
2018-03-15T18:24:17.581Z,98397.95
2018-03-15T18:26:46.814Z,98403.66
2018-03-15T18:29:16.044Z,98402.58
2018-03-15T18:31:45.256Z,98402.94
2018-03-15T18:34:14.472Z,98406.89
2018-03-15T18:36:43.756Z,98416.28
2018-03-15T18:39:13.177Z,98419.09
2018-03-15T18:41:42.363Z,98416.16
2018-03-15T18:44:11.604Z,98418.22
2018-03-15T18:46:40.925Z,98405.21
2018-03-15T18:49:10.134Z,98421.04
2018-03-15T18:51:40.102Z,98411.35
2018-03-15T18:54:10.935Z,98417.34
2018-03-15T18:56:40.140Z,98418.00
2018-03-15T18:59:09.542Z,98418.88
2018-03-15T19:01:39.492Z,98422.27
2018-03-15T19:04:08.672Z,98421.03
2018-03-15T19:06:38.711Z,98422.59
2018-03-15T19:09:07.935Z,98428.31
2018-03-15T19:11:37.187Z,98420.37
2018-03-15T19:14:07.154Z,98426.68
2018-03-15T19:16:36.391Z,98422.20
2018-03-15T19:19:07.154Z,98429.83
2018-03-15T19:21:36.562Z,98420.17
2018-03-15T19:24:05.781Z,98428.15
2018-03-15T19:26:35.024Z,98425.73
2018-03-15T19:29:04.235Z,98431.72
2018-03-15T19:31:34.354Z,98427.92
2018-03-15T19:34:03.569Z,98430.35
2018-03-15T19:36:32.810Z,98430.65
2018-03-15T19:39:02.028Z,98434.67
2018-03-15T19:41:31.310Z,98438.31
2018-03-15T19:44:00.522Z,98436.17
2018-03-15T19:46:29.727Z,98444.32
2018-03-15T19:48:59.927Z,98446.03
2018-03-15T19:51:29.292Z,98440.87
2018-03-15T19:53:58.512Z,98446.67
2018-03-15T19:56:27.715Z,98450.66
2018-03-15T19:58:56.938Z,98453.58
2018-03-15T20:01:26.144Z,98453.08
2018-03-15T20:03:55.440Z,98447.48
2018-03-15T20:06:25.400Z,98450.55
2018-03-15T20:08:54.634Z,98442.19
2018-03-15T20:11:23.858Z,98450.48
2018-03-15T20:13:53.159Z,98446.54
2018-03-15T20:16:23.155Z,98445.30
2018-03-15T20:18:52.634Z,98444.66
2018-03-15T20:21:21.832Z,98442.91
2018-03-15T20:37:17.532Z,98443.59
2018-03-15T20:39:52.384Z,98443.23
2018-03-15T20:42:21.703Z,98440.39
2018-03-15T20:44:51.719Z,98445.51
2018-03-15T20:47:27.248Z,98445.01
2018-03-15T20:49:57.283Z,98452.45
2018-03-15T20:52:27.291Z,98451.91
2018-03-15T20:54:56.491Z,98451.31
2018-03-15T20:57:26.487Z,98446.91
2018-03-15T20:59:55.684Z,98455.84
2018-03-15T21:02:24.896Z,98461.22
2018-03-15T21:04:54.148Z,98460.80
2018-03-15T21:07:23.489Z,98459.12
2018-03-15T21:09:53.507Z,98458.55
2018-03-15T21:12:22.731Z,98454.92
2018-03-15T21:14:52.078Z,98452.49
2018-03-15T21:17:21.332Z,98458.76
2018-03-15T21:19:51.314Z,98458.86
2018-03-15T21:22:20.571Z,98469.19
2018-03-15T21:24:50.026Z,98467.29
2018-03-15T21:27:20.096Z,98465.41
2018-03-15T21:29:49.328Z,98467.44
2018-03-15T21:32:18.560Z,98474.48
2018-03-15T21:34:48.562Z,98479.19
2018-03-15T21:37:18.554Z,98475.91
2018-03-15T21:39:47.759Z,98481.98
2018-03-15T21:42:16.985Z,98475.80
2018-03-15T21:44:46.943Z,98473.83
2018-03-15T21:47:16.193Z,98469.87
2018-03-15T21:49:46.168Z,98471.80
2018-03-15T21:52:15.376Z,98475.80
2018-03-15T21:54:44.615Z,98473.09
2018-03-15T21:57:13.982Z,98475.19
2018-03-15T21:59:43.189Z,98477.72
2018-03-15T22:02:13.168Z,98469.06
2018-03-15T22:04:42.451Z,98471.20
2018-03-15T22:07:12.088Z,98465.97
2018-03-15T22:09:41.380Z,98468.14
2018-03-15T22:12:10.592Z,98467.11
2018-03-15T22:14:39.816Z,98464.17
2018-03-15T22:17:09.825Z,98459.77
2018-03-15T22:19:39.013Z,98461.86
2018-03-15T22:22:09.040Z,98463.14
2018-03-15T22:24:39.120Z,98460.39
2018-03-15T22:27:08.394Z,98456.27
2018-03-15T22:29:37.595Z,98459.64
2018-03-15T22:32:06.871Z,98454.22
2018-03-15T22:34:36.101Z,98449.16
2018-03-15T22:37:05.378Z,98450.66
2018-03-15T22:39:34.608Z,98444.95
2018-03-15T22:42:03.797Z,98447.57
2018-03-15T22:44:33.019Z,98448.48
2018-03-15T22:47:02.222Z,98438.14
2018-03-15T22:49:31.444Z,98433.53
2018-03-15T22:52:01.453Z,98429.84
2018-03-15T22:54:31.426Z,98433.69
2018-03-15T22:57:00.675Z,98432.34
2018-03-15T22:59:30.127Z,98433.92
2018-03-15T23:01:59.380Z,98424.26
2018-03-15T23:04:29.382Z,98434.96
2018-03-15T23:06:59.383Z,98425.95
2018-03-15T23:09:28.583Z,98429.31
2018-03-15T23:11:57.879Z,98429.44
2018-03-15T23:14:27.090Z,98428.66
2018-03-15T23:16:56.360Z,98434.62
2018-03-15T23:19:25.597Z,98432.48
2018-03-15T23:21:54.791Z,98430.36
2018-03-15T23:24:24.229Z,98428.54
2018-03-15T23:26:54.135Z,98435.50
2018-03-15T23:29:23.362Z,98442.41
2018-03-15T23:31:52.615Z,98447.01
2018-03-15T23:34:22.685Z,98433.13
2018-03-15T23:36:52.247Z,98432.41
2018-03-15T23:39:21.406Z,98436.71
2018-03-15T23:41:50.611Z,98438.16
2018-03-15T23:44:20.611Z,98437.32
2018-03-15T23:46:49.881Z,98435.45
2018-03-15T23:49:19.071Z,98439.28
2018-03-15T23:51:48.256Z,98442.89
2018-03-15T23:54:17.546Z,98446.80
2018-03-15T23:56:46.746Z,98444.28
2018-03-15T23:59:16.015Z,98449.64
